Time;durP1;ratioP1;P1;durP2;ratioP2;P2;SDS_P1;SDS_P2;PMS_P1;PMS_P2;Temp;Humidity;BMP_temperature;BMP_pressure;BME280_temperature;BME280_humidity;BME280_pressure;Samples;Min_cycle;Max_cycle;Signal;HPM_P1;HPM_P2
2023/08/05 00:00:08;;;;;;;1.47;0.97;;;;;;;;;;6214908;23;20012;-72
2023/08/05 00:02:35;;;;;;;2.47;1.27;;;;;;;;;;6211577;23;20020;-72
2023/08/05 00:05:02;;;;;;;1.87;1.20;;;;;;;;;;6209946;23;20324;-72
2023/08/05 00:07:29;;;;;;;1.23;0.90;;;;;;;;;;6207437;23;20078;-72
2023/08/05 00:09:55;;;;;;;2.43;0.93;;;;;;;;;;6209744;23;20044;-72
2023/08/05 00:12:22;;;;;;;1.93;1.07;;;;;;;;;;6211581;23;20420;-74
2023/08/05 00:14:49;;;;;;;0.73;0.43;;;;;;;;;;6216002;23;20010;-73
2023/08/05 00:17:16;;;;;;;1.43;0.90;;;;;;;;;;6216130;23;20004;-74
2023/08/05 00:19:43;;;;;;;1.37;0.93;;;;;;;;;;6215989;23;20103;-74
2023/08/05 00:22:10;;;;;;;1.03;0.77;;;;;;;;;;6216006;23;20001;-75
2023/08/05 00:24:37;;;;;;;1.43;0.83;;;;;;;;;;6213198;23;20143;-75
2023/08/05 00:27:04;;;;;;;2.40;1.73;;;;;;;;;;6209413;23;20011;-75
2023/08/05 00:29:31;;;;;;;2.83;1.37;;;;;;;;;;6209599;23;20438;-74
2023/08/05 00:31:58;;;;;;;1.27;0.80;;;;;;;;;;6209623;23;20391;-74
2023/08/05 00:34:25;;;;;;;4.33;1.00;;;;;;;;;;6210734;23;20054;-74
2023/08/05 00:36:52;;;;;;;1.17;0.80;;;;;;;;;;6215240;23;20005;-74
2023/08/05 00:39:18;;;;;;;1.37;0.90;;;;;;;;;;6215745;23;20423;-74
2023/08/05 00:41:45;;;;;;;1.53;1.07;;;;;;;;;;6215314;23;20058;-75
2023/08/05 00:44:12;;;;;;;2.10;0.83;;;;;;;;;;6215781;23;20076;-74
2023/08/05 00:46:39;;;;;;;0.83;0.63;;;;;;;;;;6214199;23;20005;-75
2023/08/05 00:49:05;;;;;;;8.03;1.47;;;;;;;;;;6209463;23;20024;-75
2023/08/05 00:51:32;;;;;;;1.70;1.10;;;;;;;;;;6207890;23;20087;-75
2023/08/05 00:53:59;;;;;;;2.80;1.20;;;;;;;;;;6209430;23;20000;-75
2023/08/05 00:56:26;;;;;;;2.17;1.27;;;;;;;;;;6209594;23;20103;-74
2023/08/05 00:58:53;;;;;;;0.93;0.83;;;;;;;;;;6215069;23;20011;-74
2023/08/05 01:01:20;;;;;;;2.30;1.00;;;;;;;;;;6215581;23;20008;-75
2023/08/05 01:03:47;;;;;;;1.10;0.70;;;;;;;;;;6215600;23;20015;-75
2023/08/05 01:06:15;;;;;;;4.13;1.33;;;;;;;;;;6215753;23;20008;-75
2023/08/05 01:08:42;;;;;;;1.27;0.57;;;;;;;;;;6214951;23;20000;-75
2023/08/05 01:11:11;;;;;;;1.77;1.00;;;;;;;;;;6208910;23;20007;-74
2023/08/05 01:13:40;;;;;;;0.73;0.53;;;;;;;;;;6209150;23;20012;-75
2023/08/05 01:16:06;;;;;;;4.50;1.30;;;;;;;;;;6208479;23;20001;-75
2023/08/05 01:18:34;;;;;;;1.50;0.87;;;;;;;;;;6209508;23;20016;-75
2023/08/05 01:21:01;;;;;;;1.07;0.50;;;;;;;;;;6215373;23;20328;-74
2023/08/05 01:23:28;;;;;;;2.40;0.97;;;;;;;;;;6215509;23;20066;-74
2023/08/05 01:25:55;;;;;;;2.30;1.03;;;;;;;;;;6212396;23;20020;-64
2023/08/05 01:28:22;;;;;;;2.03;1.30;;;;;;;;;;6214914;23;20009;-64
2023/08/05 01:30:50;;;;;;;2.23;0.73;;;;;;;;;;6215350;23;20020;-63
2023/08/05 01:33:17;;;;;;;1.33;0.80;;;;;;;;;;6208673;23;20001;-64
2023/08/05 01:35:50;;;;;;;1.70;1.10;;;;;;;;;;6209430;23;20005;-63
2023/08/05 01:38:16;;;;;;;7.73;1.33;;;;;;;;;;6208920;23;20076;-63
2023/08/05 01:40:44;;;;;;;2.83;1.30;;;;;;;;;;6209269;23;20005;-64
2023/08/05 01:43:11;;;;;;;2.07;1.10;;;;;;;;;;6215241;23;20004;-63
2023/08/05 01:45:38;;;;;;;1.43;0.90;;;;;;;;;;6215040;23;20012;-63
2023/08/05 01:48:05;;;;;;;1.87;0.77;;;;;;;;;;6212784;23;20000;-63
2023/08/05 01:50:33;;;;;;;1.83;0.70;;;;;;;;;;6213613;23;20436;-64
2023/08/05 01:52:59;;;;;;;2.50;1.17;;;;;;;;;;6214847;23;20297;-63
2023/08/05 01:55:26;;;;;;;4.30;1.57;;;;;;;;;;6208554;23;20004;-64
2023/08/05 01:57:54;;;;;;;1.43;0.83;;;;;;;;;;6208867;23;20009;-63
2023/08/05 02:00:21;;;;;;;6.97;1.33;;;;;;;;;;6208683;23;20428;-63
2023/08/05 02:02:48;;;;;;;9.03;1.00;;;;;;;;;;6208295;23;20005;-64
2023/08/05 02:05:14;;;;;;;3.00;1.07;;;;;;;;;;6213774;23;20011;-64
2023/08/05 02:07:41;;;;;;;9.17;0.77;;;;;;;;;;6215197;23;20070;-63
2023/08/05 02:10:08;;;;;;;6.03;1.20;;;;;;;;;;6214900;23;20016;-63
2023/08/05 02:12:35;;;;;;;2.00;0.60;;;;;;;;;;6215103;23;20012;-63
2023/08/05 02:15:02;;;;;;;3.57;1.30;;;;;;;;;;6214861;23;20403;-63
2023/08/05 02:17:28;;;;;;;1.27;0.90;;;;;;;;;;6208831;23;20005;-63
2023/08/05 02:19:55;;;;;;;1.30;0.77;;;;;;;;;;6208129;23;20004;-64
2023/08/05 02:22:22;;;;;;;1.53;1.13;;;;;;;;;;6208740;23;20008;-63
2023/08/05 02:24:49;;;;;;;0.30;0.30;;;;;;;;;;6208497;23;20005;-63
2023/08/05 02:27:15;;;;;;;0.70;0.60;;;;;;;;;;6213577;23;20055;-63
2023/08/05 02:29:42;;;;;;;0.80;0.67;;;;;;;;;;6214603;23;20012;-64
2023/08/05 02:32:09;;;;;;;1.53;0.87;;;;;;;;;;6214701;23;20000;-64
2023/08/05 02:34:36;;;;;;;1.33;0.50;;;;;;;;;;6214723;23;20008;-63
2023/08/05 02:37:02;;;;;;;2.27;1.40;;;;;;;;;;6214211;23;20011;-63
2023/08/05 02:39:29;;;;;;;1.80;0.80;;;;;;;;;;6209089;23;20424;-63
2023/08/05 02:41:56;;;;;;;3.17;1.37;;;;;;;;;;6208598;23;20001;-63
2023/08/05 02:44:23;;;;;;;1.07;0.73;;;;;;;;;;6208473;23;20054;-63
2023/08/05 02:46:49;;;;;;;1.43;0.83;;;;;;;;;;6208353;23;20004;-63
2023/08/05 02:49:16;;;;;;;1.17;0.73;;;;;;;;;;6212687;23;20009;-63
2023/08/05 02:51:43;;;;;;;1.60;1.00;;;;;;;;;;6214654;23;20067;-63
2023/08/05 02:54:10;;;;;;;10.87;1.77;;;;;;;;;;6214013;23;20000;-63
2023/08/05 02:56:37;;;;;;;7.30;1.43;;;;;;;;;;6214707;23;20412;-63
2023/08/05 02:59:04;;;;;;;1.03;0.90;;;;;;;;;;6214543;23;20430;-64
2023/08/05 03:01:31;;;;;;;1.63;0.90;;;;;;;;;;6209927;23;20375;-63
2023/08/05 03:03:57;;;;;;;4.20;1.20;;;;;;;;;;6208407;23;20424;-63
2023/08/05 03:06:24;;;;;;;2.37;1.23;;;;;;;;;;6208163;23;20321;-63
2023/08/05 03:08:51;;;;;;;2.33;1.23;;;;;;;;;;6207503;23;20036;-64
2023/08/05 03:11:18;;;;;;;1.13;0.70;;;;;;;;;;6211914;23;20533;-64
2023/08/05 03:13:44;;;;;;;2.10;1.30;;;;;;;;;;6214805;23;20495;-63
2023/08/05 03:16:12;;;;;;;4.93;0.93;;;;;;;;;;6214460;23;20451;-63
2023/08/05 03:18:39;;;;;;;1.63;0.93;;;;;;;;;;6214689;23;20408;-63
2023/08/05 03:21:05;;;;;;;3.10;1.07;;;;;;;;;;6214607;23;20432;-63
2023/08/05 03:23:32;;;;;;;1.70;0.90;;;;;;;;;;6210389;23;20024;-63
2023/08/05 03:25:59;;;;;;;1.53;1.07;;;;;;;;;;6208117;23;20036;-63
2023/08/05 03:28:26;;;;;;;1.00;0.70;;;;;;;;;;6207858;23;20004;-63
2023/08/05 03:30:53;;;;;;;2.33;1.40;;;;;;;;;;6208064;23;20055;-63
2023/08/05 03:33:19;;;;;;;2.90;1.10;;;;;;;;;;6211523;23;20031;-62
2023/08/05 03:35:46;;;;;;;1.80;1.00;;;;;;;;;;6214435;23;20001;-63
2023/08/05 03:38:13;;;;;;;1.00;0.77;;;;;;;;;;6214193;23;20050;-63
2023/08/05 03:40:40;;;;;;;1.07;0.83;;;;;;;;;;6214071;23;20466;-64
2023/08/05 03:43:07;;;;;;;3.43;1.33;;;;;;;;;;6214780;23;20062;-63
2023/08/05 03:45:34;;;;;;;2.03;1.17;;;;;;;;;;6210407;23;20578;-63
2023/08/05 03:48:01;;;;;;;1.73;1.00;;;;;;;;;;6207917;23;20036;-63
2023/08/05 03:50:28;;;;;;;3.20;1.23;;;;;;;;;;6207897;23;20036;-63
2023/08/05 03:52:57;;;;;;;7.33;1.40;;;;;;;;;;6208148;23;20005;-63
2023/08/05 03:55:24;;;;;;;2.43;1.30;;;;;;;;;;6211165;23;20008;-63
2023/08/05 03:57:51;;;;;;;1.83;1.17;;;;;;;;;;6214922;23;20302;-63
2023/08/05 04:00:18;;;;;;;1.90;0.87;;;;;;;;;;6214276;23;20008;-63
2023/08/05 04:02:46;;;;;;;1.60;1.00;;;;;;;;;;6213997;23;20008;-63
2023/08/05 04:05:13;;;;;;;6.00;1.37;;;;;;;;;;6214457;23;20004;-63
2023/08/05 04:07:40;;;;;;;5.17;1.33;;;;;;;;;;6210893;23;20012;-63
2023/08/05 04:10:07;;;;;;;1.67;1.10;;;;;;;;;;6208086;23;20087;-62
2023/08/05 04:12:35;;;;;;;1.67;1.23;;;;;;;;;;6207388;23;20008;-63
2023/08/05 04:15:03;;;;;;;2.37;1.13;;;;;;;;;;6207945;23;20004;-62
2023/08/05 04:17:30;;;;;;;0.83;0.63;;;;;;;;;;6210964;23;20004;-63
2023/08/05 04:19:57;;;;;;;0.93;0.60;;;;;;;;;;6216015;23;20004;-63
2023/08/05 04:22:26;;;;;;;2.50;1.13;;;;;;;;;;6216128;23;20509;-63
2023/08/05 04:24:53;;;;;;;1.40;0.60;;;;;;;;;;6216054;23;20075;-64
2023/08/05 04:27:21;;;;;;;1.33;0.87;;;;;;;;;;6216178;23;20098;-63
2023/08/05 04:29:48;;;;;;;1.47;1.20;;;;;;;;;;6212974;23;20013;-62
2023/08/05 04:32:15;;;;;;;1.17;0.73;;;;;;;;;;6209795;23;20011;-63
2023/08/05 04:34:43;;;;;;;1.17;0.90;;;;;;;;;;6209567;23;20004;-62
2023/08/05 04:37:20;;;;;;;1.50;0.87;;;;;;;;;;6209347;23;20062;-63
2023/08/05 04:39:47;;;;;;;3.67;1.13;;;;;;;;;;6211715;23;20008;-63
2023/08/05 04:42:14;;;;;;;0.73;0.47;;;;;;;;;;6216057;23;20027;-62
2023/08/05 04:44:42;;;;;;;0.87;0.60;;;;;;;;;;6215891;23;20005;-63
2023/08/05 04:47:09;;;;;;;3.50;1.20;;;;;;;;;;6215815;23;20015;-62
2023/08/05 04:49:36;;;;;;;1.70;0.93;;;;;;;;;;6215734;23;20012;-63
2023/08/05 04:52:06;;;;;;;2.10;1.13;;;;;;;;;;6210561;23;20463;-63
2023/08/05 04:54:36;;;;;;;1.10;0.73;;;;;;;;;;6208870;23;20001;-62
2023/08/05 04:57:03;;;;;;;0.93;0.67;;;;;;;;;;6209469;23;20004;-63
2023/08/05 04:59:30;;;;;;;0.97;0.73;;;;;;;;;;6209308;23;20008;-63
2023/08/05 05:01:57;;;;;;;3.87;0.90;;;;;;;;;;6211642;23;20004;-63
2023/08/05 05:04:24;;;;;;;0.57;0.30;;;;;;;;;;6215815;23;20421;-62
2023/08/05 05:06:50;;;;;;;3.77;0.50;;;;;;;;;;6215721;23;20024;-62
2023/08/05 05:09:17;;;;;;;2.53;0.50;;;;;;;;;;6214635;23;20348;-62
2023/08/05 05:11:44;;;;;;;3.47;0.40;;;;;;;;;;6215488;23;20332;-62
2023/08/05 05:14:11;;;;;;;0.40;0.30;;;;;;;;;;6212524;23;20008;-62
2023/08/05 05:16:38;;;;;;;2.17;0.20;;;;;;;;;;6209228;23;20072;-63
2023/08/05 05:19:04;;;;;;;0.67;0.23;;;;;;;;;;6209204;23;20440;-62
2023/08/05 05:21:31;;;;;;;1.83;0.37;;;;;;;;;;6209065;23;20004;-62
2023/08/05 05:23:58;;;;;;;0.20;0.20;;;;;;;;;;6209600;23;20372;-63
2023/08/05 05:26:25;;;;;;;0.50;0.20;;;;;;;;;;6215168;23;20004;-62
2023/08/05 05:28:51;;;;;;;0.70;0.33;;;;;;;;;;6214841;23;20015;-62
2023/08/05 05:31:18;;;;;;;0.50;0.43;;;;;;;;;;6215568;23;20009;-62
2023/08/05 05:33:47;;;;;;;0.83;0.33;;;;;;;;;;6215117;23;20012;-62
2023/08/05 05:36:14;;;;;;;2.20;0.60;;;;;;;;;;6212506;23;20066;-63
2023/08/05 05:38:41;;;;;;;0.27;0.17;;;;;;;;;;6208810;23;20065;-61
2023/08/05 05:41:07;;;;;;;0.20;0.20;;;;;;;;;;6208590;23;20072;-62
2023/08/05 05:43:35;;;;;;;0.00;0.00;;;;;;;;;;6208973;23;20011;-62
2023/08/05 05:46:02;;;;;;;0.10;0.10;;;;;;;;;;6211318;23;20000;-62
2023/08/05 05:48:29;;;;;;;0.73;0.30;;;;;;;;;;6215198;23;20027;-61
2023/08/05 05:50:56;;;;;;;0.27;0.20;;;;;;;;;;6215326;23;20329;-61
2023/08/05 05:53:23;;;;;;;0.57;0.23;;;;;;;;;;6215249;23;20005;-62
2023/08/05 05:55:53;;;;;;;0.00;0.00;;;;;;;;;;6214918;23;20100;-62
2023/08/05 05:58:20;;;;;;;0.00;0.00;;;;;;;;;;6212529;23;20324;-62
2023/08/05 06:00:47;;;;;;;0.40;0.10;;;;;;;;;;6208636;23;20000;-62
2023/08/05 06:03:14;;;;;;;0.23;0.20;;;;;;;;;;6207259;23;20043;-61
2023/08/05 06:05:41;;;;;;;0.30;0.30;;;;;;;;;;6208859;23;20086;-62
2023/08/05 06:08:07;;;;;;;1.40;0.70;;;;;;;;;;6210237;23;20011;-62
2023/08/05 06:10:40;;;;;;;2.93;0.90;;;;;;;;;;6214893;23;20020;-63
2023/08/05 06:13:07;;;;;;;2.60;1.27;;;;;;;;;;6215174;23;20001;-62
2023/08/05 06:15:34;;;;;;;1.53;1.03;;;;;;;;;;6215072;23;20004;-62
2023/08/05 06:18:01;;;;;;;1.37;0.50;;;;;;;;;;6214884;23;20005;-61
2023/08/05 06:20:28;;;;;;;2.43;0.43;;;;;;;;;;6212685;23;20000;-62
2023/08/05 06:22:54;;;;;;;0.20;0.20;;;;;;;;;;6208478;23;20012;-62
2023/08/05 06:25:21;;;;;;;1.70;0.40;;;;;;;;;;6208360;23;20050;-62
2023/08/05 06:27:48;;;;;;;0.30;0.13;;;;;;;;;;6208597;23;20000;-62
2023/08/05 06:30:15;;;;;;;0.37;0.27;;;;;;;;;;6209791;23;20017;-61
2023/08/05 06:32:41;;;;;;;0.77;0.57;;;;;;;;;;6214839;23;20324;-61
2023/08/05 06:35:08;;;;;;;0.67;0.47;;;;;;;;;;6214612;23;20028;-61
2023/08/05 06:37:35;;;;;;;0.90;0.60;;;;;;;;;;6214779;23;20058;-61
2023/08/05 06:40:02;;;;;;;0.47;0.30;;;;;;;;;;6214682;23;20005;-61
2023/08/05 06:42:29;;;;;;;1.43;0.57;;;;;;;;;;6212363;23;20009;-61
2023/08/05 06:44:56;;;;;;;0.20;0.20;;;;;;;;;;6208334;23;20005;-62
2023/08/05 06:47:22;;;;;;;0.37;0.37;;;;;;;;;;6208069;23;20028;-61
2023/08/05 06:49:49;;;;;;;0.13;0.10;;;;;;;;;;6208343;23;20015;-61
2023/08/05 06:52:16;;;;;;;0.30;0.23;;;;;;;;;;6208979;23;20432;-61
2023/08/05 06:54:43;;;;;;;0.50;0.20;;;;;;;;;;6214561;23;20480;-61
2023/08/05 06:57:10;;;;;;;3.30;1.90;;;;;;;;;;6214641;23;20004;-61
2023/08/05 06:59:36;;;;;;;2.77;1.00;;;;;;;;;;6215121;23;20262;-61
2023/08/05 07:02:03;;;;;;;1.40;0.80;;;;;;;;;;6214674;23;20430;-61
2023/08/05 07:04:30;;;;;;;0.77;0.60;;;;;;;;;;6213420;23;20070;-61
2023/08/05 07:06:57;;;;;;;8.40;0.90;;;;;;;;;;6208381;23;20430;-61
2023/08/05 07:09:24;;;;;;;0.60;0.40;;;;;;;;;;6208039;23;20012;-61
2023/08/05 07:11:51;;;;;;;2.13;0.40;;;;;;;;;;6208146;23;20000;-61
2023/08/05 07:14:17;;;;;;;0.53;0.37;;;;;;;;;;6207948;23;20008;-61
2023/08/05 07:16:44;;;;;;;0.20;0.20;;;;;;;;;;6214621;23;20005;-61
2023/08/05 07:19:11;;;;;;;0.10;0.10;;;;;;;;;;6214574;23;20031;-61
2023/08/05 07:21:38;;;;;;;0.67;0.23;;;;;;;;;;6214659;23;20027;-61
2023/08/05 07:24:05;;;;;;;0.73;0.50;;;;;;;;;;6214367;23;20001;-61
2023/08/05 07:26:32;;;;;;;0.10;0.10;;;;;;;;;;6213387;23;20011;-61
2023/08/05 07:28:58;;;;;;;0.43;0.20;;;;;;;;;;6207830;23;20017;-62
2023/08/05 07:31:25;;;;;;;0.37;0.10;;;;;;;;;;6208248;23;20032;-61
2023/08/05 07:33:52;;;;;;;4.53;0.47;;;;;;;;;;6207916;23;20012;-61
2023/08/05 07:36:22;;;;;;;1.70;0.50;;;;;;;;;;6208019;23;20004;-61
2023/08/05 07:38:51;;;;;;;0.60;0.30;;;;;;;;;;6214519;23;20008;-61
2023/08/05 07:41:20;;;;;;;0.33;0.23;;;;;;;;;;6214652;23;20036;-61
2023/08/05 07:43:47;;;;;;;6.33;0.60;;;;;;;;;;6213672;23;20012;-62
2023/08/05 07:46:14;;;;;;;0.63;0.40;;;;;;;;;;6214561;23;20005;-61
2023/08/05 07:48:42;;;;;;;0.83;0.33;;;;;;;;;;6213688;23;20007;-62
2023/08/05 07:51:08;;;;;;;1.30;0.47;;;;;;;;;;6208253;23;20001;-61
2023/08/05 07:53:36;;;;;;;2.37;1.43;;;;;;;;;;6209690;23;20011;-61
2023/08/05 07:56:12;;;;;;;4.03;1.93;;;;;;;;;;6209807;23;20007;-61
2023/08/05 07:58:42;;;;;;;4.33;3.00;;;;;;;;;;6209937;23;20008;-62
2023/08/05 08:01:13;;;;;;;13.83;5.50;;;;;;;;;;6216304;23;20040;-61
2023/08/05 08:03:43;;;;;;;5.40;3.30;;;;;;;;;;6216281;23;20005;-60
2023/08/05 08:06:14;;;;;;;7.83;3.50;;;;;;;;;;6216258;23;20004;-62
2023/08/05 08:08:41;;;;;;;4.13;3.00;;;;;;;;;;6215892;23;20423;-61
2023/08/05 08:11:08;;;;;;;1.90;1.27;;;;;;;;;;6214185;23;20009;-61
2023/08/05 08:13:34;;;;;;;2.30;0.80;;;;;;;;;;6210043;23;20416;-61
2023/08/05 08:16:01;;;;;;;0.67;0.33;;;;;;;;;;6209969;23;20001;-61
2023/08/05 08:18:28;;;;;;;0.67;0.40;;;;;;;;;;6209625;23;20064;-61
2023/08/05 08:20:54;;;;;;;0.20;0.20;;;;;;;;;;6210276;23;20052;-61
2023/08/05 08:23:22;;;;;;;1.57;0.77;;;;;;;;;;6216044;23;20328;-61
2023/08/05 08:25:48;;;;;;;4.37;0.60;;;;;;;;;;6215569;23;20004;-61
2023/08/05 08:28:15;;;;;;;1.33;0.87;;;;;;;;;;6215981;23;20015;-61
2023/08/05 08:31:02;;;;;;;1.13;0.77;;;;;;;;;;6216123;23;20328;-61
2023/08/05 08:33:29;;;;;;;0.67;0.53;;;;;;;;;;6213711;23;20067;-61
2023/08/05 08:35:56;;;;;;;1.73;1.03;;;;;;;;;;6209423;23;20424;-61
2023/08/05 08:38:22;;;;;;;0.70;0.43;;;;;;;;;;6209068;23;20012;-61
2023/08/05 08:40:50;;;;;;;0.20;0.20;;;;;;;;;;6209466;23;20005;-61
2023/08/05 08:43:20;;;;;;;1.13;0.50;;;;;;;;;;6210903;23;20000;-61
2023/08/05 08:45:48;;;;;;;0.40;0.40;;;;;;;;;;6215798;23;20547;-60
2023/08/05 08:48:16;;;;;;;0.40;0.40;;;;;;;;;;6215803;23;20008;-61
2023/08/05 08:50:43;;;;;;;0.30;0.20;;;;;;;;;;6215630;23;20019;-61
2023/08/05 08:53:13;;;;;;;0.20;0.07;;;;;;;;;;6215445;23;20004;-61
2023/08/05 08:55:41;;;;;;;1.03;0.50;;;;;;;;;;6213975;23;20012;-61
2023/08/05 08:58:08;;;;;;;0.60;0.40;;;;;;;;;;6209890;23;20009;-61
2023/08/05 09:00:35;;;;;;;0.50;0.40;;;;;;;;;;6209428;23;20005;-61
2023/08/05 09:03:02;;;;;;;1.37;0.67;;;;;;;;;;6209264;23;20062;-61
2023/08/05 09:05:31;;;;;;;1.40;0.80;;;;;;;;;;6210302;23;20001;-61
2023/08/05 09:07:58;;;;;;;2.53;0.57;;;;;;;;;;6215514;23;20060;-60
2023/08/05 09:10:25;;;;;;;0.47;0.40;;;;;;;;;;6215521;23;20019;-61
2023/08/05 09:12:52;;;;;;;0.80;0.50;;;;;;;;;;6215610;23;20008;-61
2023/08/05 09:15:21;;;;;;;0.27;0.27;;;;;;;;;;6215645;23;20009;-61
2023/08/05 09:17:48;;;;;;;1.77;0.80;;;;;;;;;;6213788;23;20004;-60
2023/08/05 09:20:22;;;;;;;3.87;2.13;;;;;;;;;;6208636;23;20005;-62
2023/08/05 09:22:55;;;;;;;2.53;1.47;;;;;;;;;;6209239;23;20351;-61
2023/08/05 09:25:23;;;;;;;5.57;3.23;;;;;;;;;;6209097;23;20013;-61
2023/08/05 09:27:53;;;;;;;3.23;1.77;;;;;;;;;;6211091;23;20412;-61
2023/08/05 09:30:21;;;;;;;1.10;0.60;;;;;;;;;;6215606;23;20012;-61
2023/08/05 09:32:49;;;;;;;0.77;0.53;;;;;;;;;;6214724;23;20177;-61
2023/08/05 09:35:16;;;;;;;2.03;0.53;;;;;;;;;;6215456;23;20004;-61
2023/08/05 09:37:51;;;;;;;1.00;0.40;;;;;;;;;;6215293;23;20008;-61
2023/08/05 09:40:18;;;;;;;0.43;0.40;;;;;;;;;;6212437;23;20008;-62
2023/08/05 09:42:57;;;;;;;2.23;1.00;;;;;;;;;;6208944;23;20012;-61
2023/08/05 09:45:25;;;;;;;0.33;0.33;;;;;;;;;;6208765;23;20027;-61
2023/08/05 09:47:58;;;;;;;0.67;0.53;;;;;;;;;;6208976;23;20007;-61
2023/08/05 09:50:25;;;;;;;0.83;0.50;;;;;;;;;;6211586;23;20012;-61
2023/08/05 09:52:56;;;;;;;0.20;0.20;;;;;;;;;;6215338;23;20012;-61
2023/08/05 09:55:23;;;;;;;0.30;0.27;;;;;;;;;;6215196;23;20468;-61
2023/08/05 09:57:50;;;;;;;2.93;1.97;;;;;;;;;;6215392;23;20420;-61
2023/08/05 10:00:17;;;;;;;2.23;1.57;;;;;;;;;;6214919;23;20005;-61
2023/08/05 10:02:45;;;;;;;2.23;1.83;;;;;;;;;;6211763;23;20008;-61
2023/08/05 10:05:12;;;;;;;1.50;0.77;;;;;;;;;;6208549;23;20119;-61
2023/08/05 10:07:40;;;;;;;1.17;0.87;;;;;;;;;;6208662;23;20138;-61
2023/08/05 10:10:08;;;;;;;0.43;0.43;;;;;;;;;;6208611;23;20016;-61
2023/08/05 10:12:55;;;;;;;0.53;0.50;;;;;;;;;;6211399;23;20056;-61
2023/08/05 10:15:30;;;;;;;0.83;0.60;;;;;;;;;;6214462;23;20011;-61
2023/08/05 10:17:57;;;;;;;0.63;0.50;;;;;;;;;;6214929;23;20004;-60
2023/08/05 10:20:24;;;;;;;3.97;0.80;;;;;;;;;;6214684;23;20001;-62
2023/08/05 10:23:02;;;;;;;0.57;0.33;;;;;;;;;;6214982;23;20005;-61
2023/08/05 10:25:41;;;;;;;1.10;0.80;;;;;;;;;;6210055;23;20011;-62
2023/08/05 10:28:11;;;;;;;9.53;0.83;;;;;;;;;;6208542;23;20324;-61
2023/08/05 10:30:42;;;;;;;0.40;0.33;;;;;;;;;;6208075;23;20086;-61
2023/08/05 10:33:09;;;;;;;2.23;0.70;;;;;;;;;;6208167;23;20329;-61
2023/08/05 10:35:41;;;;;;;5.23;0.90;;;;;;;;;;6213321;23;20000;-61
2023/08/05 10:38:09;;;;;;;12.70;1.13;;;;;;;;;;6214686;23;20348;-61
2023/08/05 10:40:42;;;;;;;11.23;1.00;;;;;;;;;;6214711;23;20493;-61
2023/08/05 10:43:10;;;;;;;2.50;1.13;;;;;;;;;;6214285;23;20004;-61
2023/08/05 10:45:42;;;;;;;0.77;0.70;;;;;;;;;;6214922;23;20080;-61
2023/08/05 10:48:13;;;;;;;5.53;0.67;;;;;;;;;;6208734;23;20028;-61
2023/08/05 10:50:42;;;;;;;1.30;0.90;;;;;;;;;;6207944;23;20012;-61
2023/08/05 10:53:10;;;;;;;2.50;0.60;;;;;;;;;;6208223;23;20016;-61
2023/08/05 10:55:50;;;;;;;3.70;0.57;;;;;;;;;;6207831;23;20032;-61
2023/08/05 10:58:22;;;;;;;1.20;0.63;;;;;;;;;;6214469;23;20009;-61
2023/08/05 11:00:59;;;;;;;0.53;0.40;;;;;;;;;;6214623;23;20012;-61
2023/08/05 11:03:30;;;;;;;2.03;0.80;;;;;;;;;;6214407;23;20004;-61
2023/08/05 11:06:00;;;;;;;0.60;0.57;;;;;;;;;;6214537;23;20039;-61
2023/08/05 11:08:27;;;;;;;0.90;0.60;;;;;;;;;;6213574;23;20345;-61
2023/08/05 11:10:53;;;;;;;1.00;0.60;;;;;;;;;;6208183;23;20052;-61
2023/08/05 11:13:20;;;;;;;3.20;0.80;;;;;;;;;;6208347;23;20004;-61
2023/08/05 11:16:03;;;;;;;2.03;1.10;;;;;;;;;;6208260;23;20015;-61
2023/08/05 11:18:30;;;;;;;0.40;0.40;;;;;;;;;;6208946;23;20001;-61
2023/08/05 11:20:57;;;;;;;0.53;0.47;;;;;;;;;;6214670;23;20005;-61
2023/08/05 11:23:24;;;;;;;0.83;0.67;;;;;;;;;;6214861;23;20063;-61
2023/08/05 11:25:53;;;;;;;0.20;0.20;;;;;;;;;;6214035;23;20428;-61
2023/08/05 11:28:20;;;;;;;0.87;0.50;;;;;;;;;;6215450;23;20054;-61
2023/08/05 11:30:47;;;;;;;0.33;0.33;;;;;;;;;;6214140;23;20070;-61
2023/08/05 11:33:14;;;;;;;0.80;0.53;;;;;;;;;;6210167;23;20058;-61
2023/08/05 11:35:47;;;;;;;3.73;1.03;;;;;;;;;;6210194;23;20079;-61
2023/08/05 11:38:17;;;;;;;1.37;0.80;;;;;;;;;;6210286;23;20015;-61
2023/08/05 11:40:45;;;;;;;1.17;0.73;;;;;;;;;;6210907;23;20104;-61
2023/08/05 11:43:16;;;;;;;1.40;0.83;;;;;;;;;;6215879;23;20328;-62
2023/08/05 11:45:43;;;;;;;0.90;0.60;;;;;;;;;;6216418;23;20328;-61
2023/08/05 11:48:19;;;;;;;2.30;1.20;;;;;;;;;;6216407;23;20004;-60
2023/08/05 11:50:46;;;;;;;5.40;0.80;;;;;;;;;;6216099;23;20023;-61
2023/08/05 11:53:13;;;;;;;1.83;1.07;;;;;;;;;;6214428;23;20004;-61
2023/08/05 11:55:40;;;;;;;21.43;1.43;;;;;;;;;;6209760;23;20001;-62
2023/08/05 11:58:07;;;;;;;2.33;0.83;;;;;;;;;;6209837;23;20012;-61
2023/08/05 12:00:34;;;;;;;1.93;0.90;;;;;;;;;;6210072;23;20011;-61
2023/08/05 12:03:03;;;;;;;8.47;0.97;;;;;;;;;;6210707;23;20005;-61
2023/08/05 12:05:30;;;;;;;2.40;0.97;;;;;;;;;;6216323;23;20090;-60
2023/08/05 12:07:57;;;;;;;2.03;1.10;;;;;;;;;;6216165;23;20302;-60
2023/08/05 12:10:23;;;;;;;2.13;1.20;;;;;;;;;;6215766;23;20017;-61
2023/08/05 12:12:51;;;;;;;1.93;1.30;;;;;;;;;;6216657;23;20005;-62
2023/08/05 12:15:17;;;;;;;4.00;1.40;;;;;;;;;;6214261;23;20008;-61
2023/08/05 12:17:51;;;;;;;3.17;1.43;;;;;;;;;;6208111;23;20389;-61
2023/08/05 12:20:19;;;;;;;1.53;1.10;;;;;;;;;;6209910;23;20008;-61
2023/08/05 12:22:47;;;;;;;3.87;1.00;;;;;;;;;;6209869;23;20005;-61
2023/08/05 12:25:13;;;;;;;2.20;1.20;;;;;;;;;;6210440;23;20012;-61
2023/08/05 12:27:40;;;;;;;2.00;0.83;;;;;;;;;;6216123;23;20004;-61
2023/08/05 12:30:10;;;;;;;1.03;0.90;;;;;;;;;;6215602;23;20066;-61
2023/08/05 12:32:36;;;;;;;0.90;0.77;;;;;;;;;;6215785;23;20004;-61
2023/08/05 12:35:06;;;;;;;6.83;1.13;;;;;;;;;;6216041;23;20005;-61
2023/08/05 12:37:37;;;;;;;1.37;0.90;;;;;;;;;;6213576;23;20408;-62
2023/08/05 12:40:04;;;;;;;3.03;1.00;;;;;;;;;;6209791;23;20015;-61
2023/08/05 12:42:32;;;;;;;1.23;0.40;;;;;;;;;;6209722;23;20000;-61
2023/08/05 12:45:02;;;;;;;2.63;0.87;;;;;;;;;;6209690;23;20000;-61
2023/08/05 12:47:29;;;;;;;0.93;0.57;;;;;;;;;;6210982;23;20004;-61
2023/08/05 12:49:56;;;;;;;1.03;0.73;;;;;;;;;;6215597;23;20012;-60
2023/08/05 12:52:23;;;;;;;1.07;0.80;;;;;;;;;;6215090;23;20000;-61
2023/08/05 12:54:49;;;;;;;0.30;0.30;;;;;;;;;;6215778;23;20455;-61
2023/08/05 12:57:16;;;;;;;3.17;1.17;;;;;;;;;;6215841;23;20071;-61
2023/08/05 12:59:43;;;;;;;0.87;0.70;;;;;;;;;;6213930;23;20007;-61
2023/08/05 13:02:09;;;;;;;0.63;0.50;;;;;;;;;;6209517;23;20008;-60
2023/08/05 13:04:36;;;;;;;1.87;0.60;;;;;;;;;;6209191;23;20032;-61
2023/08/05 13:07:02;;;;;;;1.13;0.90;;;;;;;;;;6209030;23;20011;-62
2023/08/05 13:09:31;;;;;;;1.70;1.00;;;;;;;;;;6209993;23;20314;-60
2023/08/05 13:12:01;;;;;;;0.83;0.70;;;;;;;;;;6215292;23;20012;-60
2023/08/05 13:14:29;;;;;;;3.43;1.30;;;;;;;;;;6215606;23;20054;-61
2023/08/05 13:16:55;;;;;;;2.40;1.20;;;;;;;;;;6215725;23;20027;-61
2023/08/05 13:19:22;;;;;;;1.37;1.00;;;;;;;;;;6215566;23;20055;-61
2023/08/05 13:21:49;;;;;;;2.93;1.40;;;;;;;;;;6213436;23;20420;-61
2023/08/05 13:24:16;;;;;;;2.53;1.23;;;;;;;;;;6208963;23;20008;-60
2023/08/05 13:26:42;;;;;;;2.53;1.33;;;;;;;;;;6208712;23;20024;-61
2023/08/05 13:29:09;;;;;;;1.67;1.27;;;;;;;;;;6209021;23;20016;-61
2023/08/05 13:31:35;;;;;;;1.40;1.00;;;;;;;;;;6209435;23;20012;-61
2023/08/05 13:34:02;;;;;;;5.43;1.03;;;;;;;;;;6215447;23;20000;-60
2023/08/05 13:36:29;;;;;;;1.97;1.43;;;;;;;;;;6215214;23;20036;-61
2023/08/05 13:38:56;;;;;;;1.70;0.97;;;;;;;;;;6215126;23;20009;-61
2023/08/05 13:41:22;;;;;;;2.23;1.30;;;;;;;;;;6215153;23;20032;-61
2023/08/05 13:43:49;;;;;;;3.40;1.27;;;;;;;;;;6214204;23;20009;-61
2023/08/05 13:46:16;;;;;;;2.10;1.43;;;;;;;;;;6209018;23;20424;-60
2023/08/05 13:48:42;;;;;;;1.53;1.20;;;;;;;;;;6208813;23;20001;-61
2023/08/05 13:51:10;;;;;;;2.23;1.33;;;;;;;;;;6208421;23;20019;-61
2023/08/05 13:53:37;;;;;;;2.43;1.70;;;;;;;;;;6208510;23;20008;-60
2023/08/05 13:56:04;;;;;;;3.43;2.03;;;;;;;;;;6215492;23;20067;-61
2023/08/05 13:58:31;;;;;;;4.23;1.73;;;;;;;;;;6215142;23;20328;-61
2023/08/05 14:00:59;;;;;;;20.67;2.00;;;;;;;;;;6215131;23;20424;-61
2023/08/05 14:03:26;;;;;;;3.50;2.37;;;;;;;;;;6215007;23;20012;-61
2023/08/05 14:05:52;;;;;;;3.53;2.43;;;;;;;;;;6214321;23;20004;-61
2023/08/05 14:08:19;;;;;;;4.00;2.43;;;;;;;;;;6208346;23;20005;-61
2023/08/05 14:10:50;;;;;;;4.23;1.97;;;;;;;;;;6208702;23;20415;-61
2023/08/05 14:13:16;;;;;;;11.53;3.13;;;;;;;;;;6208551;23;20365;-61
2023/08/05 14:15:43;;;;;;;16.53;2.23;;;;;;;;;;6208594;23;20067;-61
2023/08/05 14:18:10;;;;;;;2.77;1.60;;;;;;;;;;6215045;23;20005;-61
2023/08/05 14:20:37;;;;;;;4.40;2.43;;;;;;;;;;6214879;23;20008;-61
2023/08/05 14:23:04;;;;;;;3.67;2.10;;;;;;;;;;6214380;23;20486;-60
2023/08/05 14:25:30;;;;;;;2.77;1.67;;;;;;;;;;6214884;23;20032;-61
2023/08/05 14:27:58;;;;;;;3.17;1.73;;;;;;;;;;6214336;23;20008;-61
2023/08/05 14:30:26;;;;;;;7.07;1.97;;;;;;;;;;6208422;23;20012;-61
2023/08/05 14:32:53;;;;;;;2.13;1.53;;;;;;;;;;6208662;23;20363;-61
2023/08/05 14:35:19;;;;;;;4.07;2.40;;;;;;;;;;6208326;23;20451;-61
2023/08/05 14:37:46;;;;;;;5.57;2.07;;;;;;;;;;6207964;23;20012;-61
2023/08/05 14:40:13;;;;;;;3.00;1.90;;;;;;;;;;6214718;23;20448;-61
2023/08/05 14:42:39;;;;;;;1.83;1.30;;;;;;;;;;6214788;23;20007;-62
2023/08/05 14:45:06;;;;;;;3.03;1.73;;;;;;;;;;6214838;23;20375;-62